Time;durP1;ratioP1;P1;durP2;ratioP2;P2;SDS_P1;SDS_P2;PMS_P1;PMS_P2;Temp;Humidity;BMP_temperature;BMP_pressure;BME280_temperature;BME280_humidity;BME280_pressure;Samples;Min_cycle;Max_cycle;Signal;HPM_P1;HPM_P2
2022/07/31 00:01:57;;;;;;;;;;;;;;;26.13;64.90;154228.66;1752778;82;20174;-58
2022/07/31 00:04:26;;;;;;;;;;;;;;;26.11;63.59;154223.42;1751108;82;20471;-59
2022/07/31 00:06:53;;;;;;;;;;;;;;;26.06;63.44;154210.33;1722717;83;20191;-59
2022/07/31 00:09:21;;;;;;;;;;;;;;;26.01;63.50;154199.84;1722830;82;20134;-58
2022/07/31 00:11:47;;;;;;;;;;;;;;;26.02;64.90;154201.14;1722974;82;21243;-58
2022/07/31 00:14:14;;;;;;;;;;;;;;;26.03;66.40;154205.09;1681640;84;20490;-59
2022/07/31 00:16:41;;;;;;;;;;;;;;;26.01;67.23;154199.84;1697444;84;20150;-59
2022/07/31 00:19:08;;;;;;;;;;;;;;;25.98;67.96;154190.66;1721660;83;20200;-59
2022/07/31 00:21:35;;;;;;;;;;;;;;;25.91;68.16;154173.61;1699436;84;20193;-59
2022/07/31 00:24:01;;;;;;;;;;;;;;;25.87;67.86;154163.14;1730190;83;21160;-59
2022/07/31 00:26:28;;;;;;;;;;;;;;;25.82;67.87;154150.03;1699246;84;20454;-59
2022/07/31 00:28:55;;;;;;;;;;;;;;;25.83;67.59;154152.66;1729971;83;20187;-59
2022/07/31 00:31:23;;;;;;;;;;;;;;;25.76;67.25;154134.33;1700800;84;20184;-59
2022/07/31 00:33:51;;;;;;;;;;;;;;;25.70;66.82;154121.19;1730212;83;20594;-58
2022/07/31 00:36:18;;;;;;;;;;;;;;;25.67;65.93;154112.05;1729337;83;22107;-57
2022/07/31 00:38:45;;;;;;;;;;;;;;;25.63;65.30;154102.86;1699602;84;20221;-57
2022/07/31 00:41:12;;;;;;;;;;;;;;;25.58;64.44;154089.77;1730108;82;20201;-59
2022/07/31 00:43:39;;;;;;;;;;;;;;;25.53;63.92;154076.63;1699631;84;20176;-59
2022/07/31 00:46:06;;;;;;;;;;;;;;;25.48;63.21;154064.86;1730189;83;20224;-59
2022/07/31 00:48:32;;;;;;;;;;;;;;;25.42;63.05;154050.39;1699515;84;21388;-59
2022/07/31 00:51:00;;;;;;;;;;;;;;;25.40;62.73;154045.16;1730424;83;20179;-59
2022/07/31 00:53:26;;;;;;;;;;;;;;;25.39;62.43;154042.53;1700885;84;20193;-59
2022/07/31 00:55:53;;;;;;;;;;;;;;;25.42;62.48;154049.06;1729921;83;20176;-60
2022/07/31 00:58:20;;;;;;;;;;;;;;;25.42;62.43;154050.39;1700805;84;20188;-59
2022/07/31 01:00:47;;;;;;;;;;;;;;;25.38;62.33;154039.91;1730100;82;21222;-58
2022/07/31 01:03:14;;;;;;;;;;;;;;;25.38;62.39;154038.58;1699093;84;20621;-59
2022/07/31 01:05:41;;;;;;;;;;;;;;;25.32;62.72;154024.20;1728348;83;20141;-59
2022/07/31 01:08:09;;;;;;;;;;;;;;;25.29;63.15;154016.30;1726562;83;20593;-59
2022/07/31 01:11:00;;;;;;;;;;;;;;;25.30;63.88;154018.92;1722597;83;20141;-59
2022/07/31 01:13:32;;;;;;;;;;;;;;;25.29;64.63;154016.30;1697636;83;21439;-59
2022/07/31 01:16:00;;;;;;;;;;;;;;;25.26;65.10;154008.45;1726810;83;20168;-59
2022/07/31 01:18:27;;;;;;;;;;;;;;;25.24;64.58;154003.22;1727213;83;20190;-59
2022/07/31 01:20:54;;;;;;;;;;;;;;;25.17;64.42;153987.50;1726797;83;20475;-58
2022/07/31 01:23:40;;;;;;;;;;;;;;;25.15;64.66;153982.27;1727017;83;20154;-58
2022/07/31 01:26:34;;;;;;;;;;;;;;;25.15;64.46;153982.27;1723641;83;21093;-59
2022/07/31 01:29:09;;;;;;;;;;;;;;;25.14;63.97;153979.66;1727415;83;20129;-59
2022/07/31 01:31:53;;;;;;;;;;;;;;;25.12;64.04;153973.08;1726855;81;20182;-59
2022/07/31 01:34:39;;;;;;;;;;;;;;;25.15;64.29;153980.94;1726911;83;20198;-59
2022/07/31 01:37:12;;;;;;;;;;;;;;;25.20;64.14;153992.75;1727004;83;20178;-59
2022/07/31 01:39:42;;;;;;;;;;;;;;;25.19;64.07;153991.41;1726826;81;21069;-59
2022/07/31 01:42:09;;;;;;;;;;;;;;;25.12;63.95;153974.41;1727597;83;20146;-59
2022/07/31 01:44:40;;;;;;;;;;;;;;;25.11;64.12;153970.47;1727177;81;20206;-59
2022/07/31 01:47:07;;;;;;;;;;;;;;;25.10;64.36;153967.84;1727147;82;20153;-58
2022/07/31 01:49:34;;;;;;;;;;;;;;;25.11;64.56;153970.47;1727293;83;20195;-58
2022/07/31 01:52:01;;;;;;;;;;;;;;;25.08;64.76;153962.61;1727050;83;21187;-59
2022/07/31 01:54:28;;;;;;;;;;;;;;;25.07;64.40;153961.28;1726926;81;20236;-59
2022/07/31 01:56:58;;;;;;;;;;;;;;;25.03;64.28;153950.80;1727273;83;20283;-58
2022/07/31 01:59:26;;;;;;;;;;;;;;;25.05;63.95;153956.03;1727052;83;20849;-58
2022/07/31 02:02:07;;;;;;;;;;;;;;;25.03;62.91;153952.14;1727183;83;20202;-58
2022/07/31 02:04:34;;;;;;;;;;;;;;;24.99;63.08;153941.67;1727058;83;21235;-59
2022/07/31 02:07:05;;;;;;;;;;;;;;;24.97;63.76;153935.09;1727207;82;20440;-59
2022/07/31 02:09:32;;;;;;;;;;;;;;;24.98;64.49;153937.72;1727157;82;20121;-59
2022/07/31 02:11:59;;;;;;;;;;;;;;;24.97;64.77;153935.09;1748221;81;20173;-59
2022/07/31 02:14:27;;;;;;;;;;;;;;;24.98;64.87;153937.72;1755108;81;20146;-59
2022/07/31 02:16:54;;;;;;;;;;;;;;;24.99;64.94;153941.67;1748366;82;22153;-59
2022/07/31 02:19:22;;;;;;;;;;;;;;;24.98;65.27;153939.05;1736638;82;20220;-57
2022/07/31 02:21:49;;;;;;;;;;;;;;;24.99;65.18;153940.33;1735147;82;20227;-58
2022/07/31 02:24:16;;;;;;;;;;;;;;;24.97;65.14;153936.38;1734991;82;20164;-58
2022/07/31 02:26:43;;;;;;;;;;;;;;;24.97;64.16;153936.38;1735247;82;20165;-58
2022/07/31 02:29:11;;;;;;;;;;;;;;;24.95;64.22;153929.86;1735027;82;21241;-58
2022/07/31 02:31:38;;;;;;;;;;;;;;;24.94;64.02;153928.53;1735382;82;20886;-59
2022/07/31 02:34:05;;;;;;;;;;;;;;;24.95;63.76;153929.86;1735063;82;20214;-59
2022/07/31 02:36:33;;;;;;;;;;;;;;;24.94;63.91;153927.25;1734931;82;20438;-57
2022/07/31 02:38:59;;;;;;;;;;;;;;;24.93;64.27;153924.63;1735383;82;20144;-59
2022/07/31 02:41:26;;;;;;;;;;;;;;;24.94;64.27;153927.25;1735161;82;21232;-58
2022/07/31 02:43:53;;;;;;;;;;;;;;;24.92;64.80;153922.02;1735091;82;20452;-58
2022/07/31 02:46:21;;;;;;;;;;;;;;;24.92;64.63;153923.30;1734991;82;20474;-59
2022/07/31 02:48:49;;;;;;;;;;;;;;;24.89;64.69;153916.78;1735245;82;20155;-58
2022/07/31 02:51:17;;;;;;;;;;;;;;;24.88;64.82;153914.16;1735134;82;20642;-58
2022/07/31 02:53:44;;;;;;;;;;;;;;;24.93;64.84;153924.63;1735315;82;21330;-58
2022/07/31 02:56:11;;;;;;;;;;;;;;;24.93;64.71;153924.63;1734845;82;20625;-58
2022/07/31 02:58:42;;;;;;;;;;;;;;;24.93;64.57;153925.91;1735277;82;20145;-58
2022/07/31 03:01:20;;;;;;;;;;;;;;;24.98;64.27;153937.72;1734620;82;20167;-59
2022/07/31 03:03:47;;;;;;;;;;;;;;;24.99;63.98;153940.33;1735124;82;20188;-58
2022/07/31 03:06:15;;;;;;;;;;;;;;;25.05;63.18;153956.03;1714803;82;21286;-59
2022/07/31 03:08:42;;;;;;;;;;;;;;;25.09;62.33;153966.56;1709984;84;20130;-59
2022/07/31 03:11:10;;;;;;;;;;;;;;;25.13;62.11;153975.69;1716203;83;20164;-58
2022/07/31 03:13:37;;;;;;;;;;;;;;;25.16;62.11;153983.55;1726299;83;20227;-58
2022/07/31 03:16:06;;;;;;;;;;;;;;;25.22;62.38;153997.97;1719095;83;20228;-59
2022/07/31 03:18:33;;;;;;;;;;;;;;;25.30;62.75;154018.92;1716556;83;21902;-58
2022/07/31 03:21:00;;;;;;;;;;;;;;;25.37;62.25;154037.30;1716649;83;20208;-58
2022/07/31 03:23:34;;;;;;;;;;;;;;;25.43;61.37;154053.00;1716637;83;20185;-58
2022/07/31 03:26:02;;;;;;;;;;;;;;;25.46;60.91;154060.86;1715570;83;20176;-59
2022/07/31 03:28:26;;;;;;;;;;;;;;;25.50;60.78;154068.77;1716080;83;20184;-58
2022/07/31 03:30:54;;;;;;;;;;;;;;;25.57;60.63;154087.14;1716739;83;21212;-58
2022/07/31 03:33:21;;;;;;;;;;;;;;;25.66;60.12;154109.42;1716698;83;20196;-59
2022/07/31 03:35:48;;;;;;;;;;;;;;;25.77;59.37;154136.95;1717077;83;20418;-59
2022/07/31 03:38:15;;;;;;;;;;;;;;;25.84;59.12;154155.28;1716786;83;20172;-77
2022/07/31 03:40:44;;;;;;;;;;;;;;;25.89;58.95;154168.37;1716746;83;20179;-58
2022/07/31 03:43:10;;;;;;;;;;;;;;;25.95;59.19;154184.09;1716561;83;21208;-58
2022/07/31 03:45:38;;;;;;;;;;;;;;;26.06;59.27;154210.33;1716322;83;20169;-58
2022/07/31 03:48:05;;;;;;;;;;;;;;;26.14;59.29;154231.28;1716705;83;20422;-58
2022/07/31 03:50:37;;;;;;;;;;;;;;;26.19;59.19;154244.44;1716396;83;20193;-59
2022/07/31 03:53:04;;;;;;;;;;;;;;;26.23;58.96;154254.95;1716706;83;20244;-59
2022/07/31 03:55:32;;;;;;;;;;;;;;;26.31;58.43;154275.91;1692082;83;21239;-59
2022/07/31 03:58:02;;;;;;;;;;;;;;;26.40;57.74;154298.20;1690063;83;20152;-59
2022/07/31 04:00:29;;;;;;;;;;;;;;;26.45;57.91;154310.02;1716593;83;20465;-58
2022/07/31 04:02:57;;;;;;;;;;;;;;;26.51;58.21;154325.73;1716777;83;20212;-59
2022/07/31 04:05:34;;;;;;;;;;;;;;;26.60;58.04;154349.31;1646420;85;20197;-59
2022/07/31 04:08:01;;;;;;;;;;;;;;;26.67;57.98;154366.38;1765663;81;21224;-59
2022/07/31 04:10:29;;;;;;;;;;;;;;;26.72;57.45;154379.47;1768312;79;20513;-58
2022/07/31 04:12:56;;;;;;;;;;;;;;;26.76;56.83;154388.67;1798376;79;20222;-59
2022/07/31 04:15:24;;;;;;;;;;;;;;;26.80;56.73;154399.16;1801143;79;20173;-59
2022/07/31 04:17:51;;;;;;;;;;;;;;;26.88;56.75;154418.88;1802375;79;20589;-60
2022/07/31 04:20:20;;;;;;;;;;;;;;;26.95;56.92;154437.22;1784329;80;21108;-59
2022/07/31 04:22:47;;;;;;;;;;;;;;;27.02;57.07;154454.28;1785547;80;20143;-61
2022/07/31 04:25:15;;;;;;;;;;;;;;;27.09;56.27;154472.67;1783666;79;20195;-59
2022/07/31 04:27:47;;;;;;;;;;;;;;;27.07;55.78;154467.39;1785030;80;20381;-58
2022/07/31 04:30:14;;;;;;;;;;;;;;;27.07;55.92;154467.39;1785549;80;20220;-60
2022/07/31 04:32:42;;;;;;;;;;;;;;;27.09;55.95;154471.34;1784998;80;21539;-60
2022/07/31 04:35:12;;;;;;;;;;;;;;;27.15;55.96;154488.41;1785270;80;20154;-59
2022/07/31 04:37:39;;;;;;;;;;;;;;;27.24;55.54;154509.38;1785147;80;20152;-58
2022/07/31 04:40:07;;;;;;;;;;;;;;;27.29;55.37;154522.47;1785147;80;20199;-58
2022/07/31 04:42:34;;;;;;;;;;;;;;;27.34;55.31;154535.63;1785482;80;20116;-58
2022/07/31 04:45:02;;;;;;;;;;;;;;;27.42;55.11;154556.59;1784804;79;21873;-59
2022/07/31 04:47:29;;;;;;;;;;;;;;;27.50;54.83;154574.94;1784738;79;20487;-59
2022/07/31 04:49:57;;;;;;;;;;;;;;;27.55;54.83;154589.44;1784536;80;20180;-58
2022/07/31 04:52:23;;;;;;;;;;;;;;;27.59;54.92;154598.64;1784349;80;20163;-60
2022/07/31 04:54:50;;;;;;;;;;;;;;;27.64;54.80;154611.75;1784678;80;20192;-59
2022/07/31 04:57:18;;;;;;;;;;;;;;;27.69;54.53;154624.86;1785052;79;21204;-58
2022/07/31 04:59:45;;;;;;;;;;;;;;;27.77;54.39;154643.25;1785360;79;20180;-58
2022/07/31 05:02:12;;;;;;;;;;;;;;;27.81;54.29;154653.75;1785379;80;20167;-59
2022/07/31 05:04:39;;;;;;;;;;;;;;;27.82;54.04;154656.36;1785165;80;20220;-59
2022/07/31 05:07:06;;;;;;;;;;;;;;;27.85;54.03;154664.23;1785230;80;20164;-60
2022/07/31 05:09:34;;;;;;;;;;;;;;;27.85;53.77;154664.23;1785348;80;21019;-60
2022/07/31 05:12:02;;;;;;;;;;;;;;;27.85;53.97;154664.23;1808585;79;20166;-58
2022/07/31 05:14:30;;;;;;;;;;;;;;;27.86;53.19;154666.84;1817770;79;20220;-60
2022/07/31 05:16:57;;;;;;;;;;;;;;;27.75;52.73;154639.30;1808135;79;20169;-59
2022/07/31 05:19:28;;;;;;;;;;;;;;;27.65;53.06;154614.38;1820075;78;20454;-60
2022/07/31 05:22:06;;;;;;;;;;;;;;;27.64;53.11;154611.75;1822505;78;21269;-59
2022/07/31 05:24:45;;;;;;;;;;;;;;;27.65;52.88;154613.08;1821871;78;20130;-58
2022/07/31 05:27:11;;;;;;;;;;;;;;;27.65;53.36;154614.38;1822572;78;20176;-74
2022/07/31 05:29:39;;;;;;;;;;;;;;;27.66;53.72;154616.98;1823025;78;20981;-76
2022/07/31 05:32:06;;;;;;;;;;;;;;;27.60;53.31;154601.25;1822865;78;20437;-73
2022/07/31 05:34:34;;;;;;;;;;;;;;;27.59;53.08;154598.64;1822853;78;21838;-74
2022/07/31 05:37:01;;;;;;;;;;;;;;;27.55;53.09;154589.44;1822888;78;20165;-75
2022/07/31 05:39:29;;;;;;;;;;;;;;;27.56;52.99;154590.78;1822668;78;20202;-75
2022/07/31 05:42:15;;;;;;;;;;;;;;;27.60;52.86;154602.55;1822857;78;21343;-75
2022/07/31 05:44:49;;;;;;;;;;;;;;;27.68;53.06;154622.23;1817966;78;20196;-73
2022/07/31 05:47:16;;;;;;;;;;;;;;;27.82;53.26;154657.66;1822868;78;21225;-74
2022/07/31 05:49:43;;;;;;;;;;;;;;;27.98;52.74;154698.36;1822523;78;20402;-74
2022/07/31 05:52:10;;;;;;;;;;;;;;;28.12;52.76;154732.45;1823049;78;20121;-74
2022/07/31 05:54:37;;;;;;;;;;;;;;;28.21;52.83;154756.16;1822620;78;20845;-74
2022/07/31 05:57:22;;;;;;;;;;;;;;;28.29;51.38;154777.12;1822771;78;20177;-75
2022/07/31 05:59:49;;;;;;;;;;;;;;;28.27;50.89;154771.89;1822913;78;21191;-74
2022/07/31 06:02:17;;;;;;;;;;;;;;;28.26;51.63;154769.27;1822617;78;20469;-73
2022/07/31 06:04:46;;;;;;;;;;;;;;;28.26;52.42;154769.27;1816483;78;20186;-74
2022/07/31 06:07:13;;;;;;;;;;;;;;;28.30;52.75;154779.75;1806459;79;20213;-74
2022/07/31 06:09:40;;;;;;;;;;;;;;;28.35;51.73;154791.58;1806345;79;20197;-74
2022/07/31 06:12:07;;;;;;;;;;;;;;;28.34;51.89;154788.95;1782255;79;21045;-74
2022/07/31 06:14:34;;;;;;;;;;;;;;;28.31;51.47;154782.37;1774933;81;20124;-74
2022/07/31 06:17:12;;;;;;;;;;;;;;;28.26;50.94;154767.94;1780393;80;20445;-74
2022/07/31 06:19:40;;;;;;;;;;;;;;;28.24;51.10;154764.02;1798019;79;20239;-74
2022/07/31 06:22:07;;;;;;;;;;;;;;;28.23;51.55;154761.39;1798754;79;20165;-74
2022/07/31 06:24:34;;;;;;;;;;;;;;;28.31;51.95;154782.37;1798836;79;22054;-74
2022/07/31 06:27:01;;;;;;;;;;;;;;;28.47;51.82;154821.77;1798901;79;20179;-74
2022/07/31 06:29:29;;;;;;;;;;;;;;;28.60;51.26;154855.86;1798558;79;20450;-74
2022/07/31 06:31:56;;;;;;;;;;;;;;;28.62;50.97;154858.48;1798779;79;20291;-74
2022/07/31 06:34:23;;;;;;;;;;;;;;;28.57;50.92;154847.98;1798648;79;20408;-74
2022/07/31 06:36:50;;;;;;;;;;;;;;;28.54;51.34;154840.13;1799199;79;21146;-74
2022/07/31 06:39:19;;;;;;;;;;;;;;;28.59;51.21;154853.23;1798548;79;20179;-74
2022/07/31 06:41:50;;;;;;;;;;;;;;;28.63;51.10;154861.11;1761489;79;20144;-74
2022/07/31 06:44:31;;;;;;;;;;;;;;;28.58;51.39;154850.61;1798587;79;20167;-74
2022/07/31 06:47:17;;;;;;;;;;;;;;;28.49;50.98;154827.00;1798676;79;20454;-74
2022/07/31 06:49:52;;;;;;;;;;;;;;;28.40;51.13;154804.69;1768031;79;21230;-73
2022/07/31 06:52:18;;;;;;;;;;;;;;;28.38;51.24;154798.11;1798550;79;20432;-73
2022/07/31 06:54:46;;;;;;;;;;;;;;;28.45;51.15;154816.52;1798352;79;20140;-74
2022/07/31 06:57:13;;;;;;;;;;;;;;;28.47;51.35;154821.77;1798738;79;20206;-74
2022/07/31 06:59:40;;;;;;;;;;;;;;;28.48;51.51;154824.39;1798508;79;20147;-75
2022/07/31 07:02:07;;;;;;;;;;;;;;;28.52;51.92;154834.88;1798269;79;20590;-74
2022/07/31 07:04:34;;;;;;;;;;;;;;;28.57;51.78;154846.70;1796336;79;20295;-74
2022/07/31 07:07:00;;;;;;;;;;;;;;;28.68;51.59;154874.27;1782198;80;20231;-74
2022/07/31 07:09:28;;;;;;;;;;;;;;;28.76;50.95;154895.25;1782382;80;20703;-74
2022/07/31 07:11:55;;;;;;;;;;;;;;;28.75;51.18;154892.62;1786831;80;20159;-74
2022/07/31 07:14:21;;;;;;;;;;;;;;;28.73;50.92;154887.39;1788277;80;21285;-75
2022/07/31 07:16:48;;;;;;;;;;;;;;;28.71;50.76;154882.14;1786800;80;20167;-60
2022/07/31 07:19:17;;;;;;;;;;;;;;;28.77;51.08;154897.87;1815143;78;20454;-58
2022/07/31 07:21:45;;;;;;;;;;;;;;;28.88;50.59;154926.84;1822456;78;20157;-58
2022/07/31 07:24:11;;;;;;;;;;;;;;;28.92;50.66;154934.70;1822608;78;20189;-59
2022/07/31 07:26:43;;;;;;;;;;;;;;;28.91;50.63;154932.08;1795519;78;22056;-58
2022/07/31 07:29:12;;;;;;;;;;;;;;;28.94;50.93;154939.95;1821373;78;20225;-59
2022/07/31 07:31:39;;;;;;;;;;;;;;;28.99;50.80;154954.41;1822451;78;20458;-58
2022/07/31 07:34:08;;;;;;;;;;;;;;;28.98;50.58;154950.44;1822557;78;20493;-73
2022/07/31 07:36:35;;;;;;;;;;;;;;;28.87;50.49;154924.22;1822466;78;20197;-74
2022/07/31 07:39:03;;;;;;;;;;;;;;;28.80;50.87;154904.52;1822458;78;21817;-72
2022/07/31 07:41:32;;;;;;;;;;;;;;;28.68;51.09;154874.27;1822472;78;20402;-72
2022/07/31 07:43:59;;;;;;;;;;;;;;;28.58;51.08;154850.61;1822566;78;20178;-73
2022/07/31 07:46:26;;;;;;;;;;;;;;;28.57;50.64;154847.98;1822483;78;20466;-73
2022/07/31 07:48:55;;;;;;;;;;;;;;;28.54;50.87;154840.13;1822564;78;20236;-73
2022/07/31 07:51:42;;;;;;;;;;;;;;;28.60;51.04;154855.86;1717585;82;20962;-73
2022/07/31 07:54:22;;;;;;;;;;;;;;;28.54;50.53;154840.13;1668037;84;20239;-74
2022/07/31 07:56:57;;;;;;;;;;;;;;;28.52;50.63;154834.88;1704846;80;20480;-73
2022/07/31 07:59:32;;;;;;;;;;;;;;;28.55;50.47;154842.75;1719258;80;20164;-73
2022/07/31 08:02:01;;;;;;;;;;;;;;;28.53;50.39;154837.50;1778236;80;20120;-73
2022/07/31 08:04:30;;;;;;;;;;;;;;;28.54;50.38;154840.13;1782714;80;39917;-73
2022/07/31 08:06:57;;;;;;;;;;;;;;;28.57;50.79;154847.98;1765247;81;20200;-72
2022/07/31 08:09:27;;;;;;;;;;;;;;;28.60;51.08;154854.58;1764891;81;20190;-73
2022/07/31 08:12:12;;;;;;;;;;;;;;;28.65;51.07;154866.41;1741050;81;20212;-59
2022/07/31 08:14:58;;;;;;;;;;;;;;;28.63;50.48;154862.44;1734884;82;20180;-58
2022/07/31 08:17:41;;;;;;;;;;;;;;;28.60;51.24;154854.58;1723218;82;21214;-58
2022/07/31 08:20:08;;;;;;;;;;;;;;;28.59;50.62;154853.23;1703894;82;20167;-59
2022/07/31 08:22:35;;;;;;;;;;;;;;;28.52;50.97;154834.88;1735099;82;20179;-59
2022/07/31 08:25:02;;;;;;;;;;;;;;;28.49;51.43;154827.00;1735375;82;20175;-59
2022/07/31 08:27:30;;;;;;;;;;;;;;;28.42;52.25;154809.94;1735232;82;20444;-59
2022/07/31 08:30:01;;;;;;;;;;;;;;;28.43;51.43;154812.56;1735332;82;21246;-59
2022/07/31 08:32:29;;;;;;;;;;;;;;;28.47;51.16;154820.44;1735264;82;20425;-59
2022/07/31 08:35:16;;;;;;;;;;;;;;;28.45;50.98;154816.52;1735371;82;20208;-60
2022/07/31 08:37:43;;;;;;;;;;;;;;;28.38;51.24;154798.11;1735211;82;20164;-60
2022/07/31 08:40:11;;;;;;;;;;;;;;;28.27;52.27;154771.89;1735213;82;20196;-60
2022/07/31 08:42:38;;;;;;;;;;;;;;;28.29;52.51;154777.12;1735281;82;20692;-60
2022/07/31 08:45:06;;;;;;;;;;;;;;;28.30;51.64;154779.75;1734951;82;20165;-59
2022/07/31 08:47:34;;;;;;;;;;;;;;;28.24;51.49;154762.69;1735013;82;20219;-58
2022/07/31 08:50:04;;;;;;;;;;;;;;;28.17;51.74;154745.61;1732967;82;20387;-59
2022/07/31 08:52:31;;;;;;;;;;;;;;;28.27;51.84;154770.55;1734993;82;20143;-59
2022/07/31 08:55:06;;;;;;;;;;;;;;;28.36;50.65;154792.88;1710903;82;21235;-59
2022/07/31 08:57:37;;;;;;;;;;;;;;;28.45;50.56;154817.81;1735294;82;20211;-59
2022/07/31 09:00:06;;;;;;;;;;;;;;;28.52;50.45;154834.88;1735106;82;20183;-59
2022/07/31 09:02:33;;;;;;;;;;;;;;;28.60;51.50;154855.86;1735206;82;20123;-75
2022/07/31 09:05:06;;;;;;;;;;;;;;;28.57;53.03;154847.98;1725979;82;20223;-74
2022/07/31 09:07:33;;;;;;;;;;;;;;;28.57;54.22;154846.70;1720895;83;21099;-59
2022/07/31 09:10:02;;;;;;;;;;;;;;;28.52;53.41;154834.88;1719953;83;20588;-60
2022/07/31 09:12:29;;;;;;;;;;;;;;;28.44;53.95;154815.19;1732956;82;20203;-60
2022/07/31 09:15:06;;;;;;;;;;;;;;;28.43;53.96;154811.28;1734377;82;20159;-58
2022/07/31 09:17:34;;;;;;;;;;;;;;;28.41;54.27;154806.03;1706331;81;20199;-59
2022/07/31 09:20:01;;;;;;;;;;;;;;;28.39;54.23;154800.73;1765904;81;21245;-59
2022/07/31 09:22:30;;;;;;;;;;;;;;;28.33;53.61;154785.00;1765160;81;20438;-58
2022/07/31 09:25:18;;;;;;;;;;;;;;;28.30;53.73;154779.75;1766042;81;20102;-74
2022/07/31 09:27:46;;;;;;;;;;;;;;;28.33;53.47;154785.00;1766002;81;20350;-74
2022/07/31 09:30:13;;;;;;;;;;;;;;;28.33;52.07;154786.34;1766068;81;20113;-75
2022/07/31 09:32:51;;;;;;;;;;;;;;;28.35;51.60;154790.25;1705330;84;21110;-75
2022/07/31 09:35:19;;;;;;;;;;;;;;;28.36;50.75;154792.88;1764534;81;20172;-75
2022/07/31 09:37:46;;;;;;;;;;;;;;;28.31;50.83;154782.37;1765806;81;20503;-75
2022/07/31 09:40:29;;;;;;;;;;;;;;;28.24;51.27;154764.02;1736379;81;20608;-75
2022/07/31 09:43:18;;;;;;;;;;;;;;;28.24;51.79;154762.69;1681088;84;20228;-58
2022/07/31 09:45:47;;;;;;;;;;;;;;;28.30;50.73;154779.75;1681245;85;22526;-59
2022/07/31 09:48:14;;;;;;;;;;;;;;;28.40;49.54;154803.36;1705763;82;20198;-59
2022/07/31 09:50:54;;;;;;;;;;;;;;;28.47;49.23;154821.77;1748105;82;20205;-59
2022/07/31 09:53:21;;;;;;;;;;;;;;;28.51;50.00;154832.25;1747054;82;20518;-60
2022/07/31 09:55:52;;;;;;;;;;;;;;;28.50;50.03;154828.30;1784466;80;20172;-60
2022/07/31 09:58:19;;;;;;;;;;;;;;;28.49;48.56;154827.00;1784497;80;21063;-60
2022/07/31 10:00:47;;;;;;;;;;;;;;;28.52;47.14;154833.59;1784562;80;20485;-59
2022/07/31 10:03:13;;;;;;;;;;;;;;;28.58;46.72;154850.61;1785019;80;20119;-60
2022/07/31 10:05:41;;;;;;;;;;;;;;;28.69;46.60;154876.89;1768431;80;20457;-60
2022/07/31 10:08:08;;;;;;;;;;;;;;;28.79;46.56;154903.17;1737115;82;20182;-60
2022/07/31 10:10:53;;;;;;;;;;;;;;;28.87;46.41;154924.22;1733083;82;21138;-60
2022/07/31 10:13:24;;;;;;;;;;;;;;;28.97;45.78;154947.81;1720507;83;20595;-60
2022/07/31 10:15:53;;;;;;;;;;;;;;;29.09;44.16;154979.34;1716650;82;20095;-60
2022/07/31 10:18:36;;;;;;;;;;;;;;;29.20;43.52;155005.59;1667571;85;20195;-59
2022/07/31 10:21:17;;;;;;;;;;;;;;;29.28;43.44;155026.58;1745320;80;20111;-59
2022/07/31 10:23:45;;;;;;;;;;;;;;;29.39;41.44;155055.50;1785022;80;21142;-59
2022/07/31 10:26:12;;;;;;;;;;;;;;;29.54;39.57;155093.61;1786776;80;20449;-59
2022/07/31 10:28:39;;;;;;;;;;;;;;;29.66;38.36;155123.81;1786674;80;20163;-59
2022/07/31 10:31:06;;;;;;;;;;;;;;;29.77;37.14;155151.41;1786693;80;20227;-59
2022/07/31 10:33:33;;;;;;;;;;;;;;;29.85;36.33;155171.11;1786631;80;20610;-58
2022/07/31 10:36:24;;;;;;;;;;;;;;;29.89;35.68;155181.61;1786702;80;20924;-59
2022/07/31 10:39:08;;;;;;;;;;;;;;;29.94;35.32;155193.44;1785895;80;20119;-58
2022/07/31 10:42:17;;;;;;;;;;;;;;;30.07;35.98;155226.33;1724764;83;20442;-58
2022/07/31 10:44:46;;;;;;;;;;;;;;;30.30;35.53;155286.75;1695740;84;20210;-60
2022/07/31 10:47:25;;;;;;;;;;;;;;;30.59;34.66;155360.31;1727021;81;20185;-59
2022/07/31 10:49:59;;;;;;;;;;;;;;;30.84;33.17;155422.16;1784094;80;21096;-59
2022/07/31 10:52:35;;;;;;;;;;;;;;;31.04;32.92;155472.09;1786570;80;20187;-59
2022/07/31 10:55:21;;;;;;;;;;;;;;;31.20;32.54;155514.22;1691028;84;20208;-59
2022/07/31 10:58:12;;;;;;;;;;;;;;;31.37;30.98;155557.58;1786632;80;20175;-60
2022/07/31 11:00:41;;;;;;;;;;;;;;;31.61;30.56;155618.05;1781853;80;20551;-60
2022/07/31 11:03:21;;;;;;;;;;;;;;;31.80;30.17;155665.44;1786669;80;22078;-59
2022/07/31 11:06:08;;;;;;;;;;;;;;;31.90;29.83;155690.42;1746042;80;20459;-59
2022/07/31 11:08:42;;;;;;;;;;;;;;;32.08;29.82;155736.42;1724711;82;20179;-59
2022/07/31 11:11:11;;;;;;;;;;;;;;;32.27;29.48;155786.41;1747451;80;20448;-59
2022/07/31 11:13:49;;;;;;;;;;;;;;;32.35;28.82;155804.84;1750101;80;20195;-59
2022/07/31 11:16:21;;;;;;;;;;;;;;;32.41;28.90;155820.66;1776378;80;21139;-60
2022/07/31 11:19:03;;;;;;;;;;;;;;;32.45;28.56;155831.19;1735244;80;20481;-60
2022/07/31 11:21:31;;;;;;;;;;;;;;;32.47;28.20;155836.44;1725315;83;20180;-60
2022/07/31 11:23:58;;;;;;;;;;;;;;;32.49;28.22;155841.69;1725361;82;20148;-60
2022/07/31 11:26:25;;;;;;;;;;;;;;;32.51;28.01;155845.66;1725339;83;20211;-60
2022/07/31 11:28:52;;;;;;;;;;;;;;;32.52;27.93;155849.58;1725232;82;21215;-60
2022/07/31 11:31:18;;;;;;;;;;;;;;;32.48;28.17;155839.06;1724874;83;20223;-60
2022/07/31 11:33:46;;;;;;;;;;;;;;;32.42;28.59;155823.30;1724907;81;20179;-60
2022/07/31 11:36:19;;;;;;;;;;;;;;;32.37;28.53;155810.11;1725216;82;20199;-61
2022/07/31 11:38:54;;;;;;;;;;;;;;;32.34;28.71;155802.22;1724820;82;20202;-61
2022/07/31 11:41:17;;;;;;;;;;;;;;;32.30;28.62;155794.28;1738204;81;21133;-61
2022/07/31 11:43:49;;;;;;;;;;;;;;;32.29;28.79;155790.38;1731794;83;20195;-61
2022/07/31 11:46:25;;;;;;;;;;;;;;;32.35;28.79;155804.84;1731458;83;20203;-59
2022/07/31 11:48:52;;;;;;;;;;;;;;;32.40;28.56;155818.03;1727992;82;20203;-60
2022/07/31 11:51:19;;;;;;;;;;;;;;;32.46;28.71;155833.81;1732114;82;20423;-59
2022/07/31 11:53:46;;;;;;;;;;;;;;;32.53;28.33;155850.91;1731560;82;21839;-61
2022/07/31 11:56:17;;;;;;;;;;;;;;;32.62;28.35;155873.28;1731607;83;20175;-61
2022/07/31 11:58:48;;;;;;;;;;;;;;;32.68;28.05;155889.05;1731659;82;20172;-61
2022/07/31 12:01:15;;;;;;;;;;;;;;;32.71;27.88;155896.94;1732000;83;20573;-61
2022/07/31 12:03:42;;;;;;;;;;;;;;;32.72;27.78;155900.91;1731786;83;20295;-60
2022/07/31 12:06:09;;;;;;;;;;;;;;;32.75;27.81;155907.45;1738078;82;21313;-60
2022/07/31 12:08:36;;;;;;;;;;;;;;;32.70;28.01;155894.31;1739634;82;20234;-60
2022/07/31 12:11:04;;;;;;;;;;;;;;;32.68;28.23;155890.34;1739552;82;20191;-61
2022/07/31 12:13:31;;;;;;;;;;;;;;;32.67;28.42;155887.72;1747983;82;20246;-61
2022/07/31 12:16:09;;;;;;;;;;;;;;;32.71;28.36;155896.94;1710464;83;20454;-61
2022/07/31 12:18:48;;;;;;;;;;;;;;;32.70;28.42;155894.31;1765316;80;21125;-61
2022/07/31 12:21:16;;;;;;;;;;;;;;;32.70;28.19;155894.31;1789023;80;20204;-60
2022/07/31 12:23:50;;;;;;;;;;;;;;;32.65;28.15;155881.16;1788890;80;20183;-60
2022/07/31 12:26:25;;;;;;;;;;;;;;;32.62;28.38;155873.28;1788998;80;20591;-60
2022/07/31 12:28:57;;;;;;;;;;;;;;;32.67;27.96;155887.72;1789091;80;20136;-60
2022/07/31 12:31:24;;;;;;;;;;;;;;;32.68;28.17;155889.05;1789193;80;21239;-59
2022/07/31 12:33:50;;;;;;;;;;;;;;;32.67;27.95;155886.42;1789078;80;20199;-60
2022/07/31 12:36:17;;;;;;;;;;;;;;;32.66;27.89;155883.78;1789160;80;20167;-60
2022/07/31 12:38:44;;;;;;;;;;;;;;;32.65;27.51;155881.16;1789222;80;20224;-60
2022/07/31 12:41:12;;;;;;;;;;;;;;;32.65;27.62;155882.45;1789607;80;20400;-61
2022/07/31 12:43:38;;;;;;;;;;;;;;;32.65;27.96;155882.45;1789115;80;21277;-61
2022/07/31 12:46:05;;;;;;;;;;;;;;;32.70;28.18;155894.31;1754292;80;20171;-61
2022/07/31 12:48:34;;;;;;;;;;;;;;;32.73;27.70;155902.19;1789127;80;20445;-61
2022/07/31 12:51:01;;;;;;;;;;;;;;;32.76;27.81;155908.78;1789244;80;20133;-60